sensor_id;sensor_type;location;lat;lon;timestamp;pressure;altitude;pressure_sealevel;temperature;humidity
72892;BME280;61032;50.782;6.818;2022-09-21T00:01:28;101522.44;;;10.48;76.20
72892;BME280;61032;50.782;6.818;2022-09-21T00:02:27;101532.09;;;10.46;76.67
72892;BME280;61032;50.782;6.818;2022-09-21T00:03:27;101529.75;;;10.39;75.97
72892;BME280;61032;50.782;6.818;2022-09-21T00:04:28;101525.69;;;10.37;76.48
72892;BME280;61032;50.782;6.818;2022-09-21T00:05:28;101534.53;;;10.33;76.41
72892;BME280;61032;50.782;6.818;2022-09-21T00:06:31;101530.44;;;10.31;76.73
72892;BME280;61032;50.782;6.818;2022-09-21T00:07:31;101529.13;;;10.28;76.65
72892;BME280;61032;50.782;6.818;2022-09-21T00:08:32;101528.31;;;10.28;77.29
72892;BME280;61032;50.782;6.818;2022-09-21T00:09:33;101536.34;;;10.24;77.22
72892;BME280;61032;50.782;6.818;2022-09-21T00:10:33;101525.63;;;10.23;77.02
72892;BME280;61032;50.782;6.818;2022-09-21T00:11:36;101524.81;;;10.22;76.75
72892;BME280;61032;50.782;6.818;2022-09-21T00:12:43;101526.47;;;10.23;77.25
72892;BME280;61032;50.782;6.818;2022-09-21T00:13:52;101525.94;;;10.21;77.10
72892;BME280;61032;50.782;6.818;2022-09-21T00:14:58;101524.91;;;10.17;76.94
72892;BME280;61032;50.782;6.818;2022-09-21T00:15:59;101529.06;;;10.15;77.04
72892;BME280;61032;50.782;6.818;2022-09-21T00:17:00;101524.69;;;10.14;77.21
72892;BME280;61032;50.782;6.818;2022-09-21T00:18:00;101525.50;;;10.14;77.08
72892;BME280;61032;50.782;6.818;2022-09-21T00:19:03;101519.56;;;10.07;77.24
72892;BME280;61032;50.782;6.818;2022-09-21T00:20:04;101523.13;;;10.08;77.58
72892;BME280;61032;50.782;6.818;2022-09-21T00:21:10;101524.03;;;10.03;77.62
72892;BME280;61032;50.782;6.818;2022-09-21T00:22:12;101527.91;;;10.02;77.34
72892;BME280;61032;50.782;6.818;2022-09-21T00:23:12;101529.31;;;9.99;77.28
72892;BME280;61032;50.782;6.818;2022-09-21T00:24:12;101528.50;;;9.99;77.56
72892;BME280;61032;50.782;6.818;2022-09-21T00:25:14;101527.38;;;10.00;77.83
72892;BME280;61032;50.782;6.818;2022-09-21T00:26:18;101522.41;;;10.02;77.25
72892;BME280;61032;50.782;6.818;2022-09-21T00:27:18;101523.75;;;10.05;77.30
72892;BME280;61032;50.782;6.818;2022-09-21T00:28:19;101531.97;;;10.05;76.99
72892;BME280;61032;50.782;6.818;2022-09-21T00:29:19;101526.19;;;10.06;76.77
72892;BME280;61032;50.782;6.818;2022-09-21T00:30:19;101525.38;;;10.06;77.07
72892;BME280;61032;50.782;6.818;2022-09-21T00:31:20;101527.81;;;10.07;77.17
72892;BME280;61032;50.782;6.818;2022-09-21T00:32:21;101524.63;;;10.00;77.38
72892;BME280;61032;50.782;6.818;2022-09-21T00:33:24;101528.19;;;10.00;77.00
72892;BME280;61032;50.782;6.818;2022-09-21T00:34:24;101522.69;;;10.00;77.14
72892;BME280;61032;50.782;6.818;2022-09-21T00:35:25;101528.72;;;10.03;77.18
72892;BME280;61032;50.782;6.818;2022-09-21T00:36:25;101534.72;;;10.05;77.04
72892;BME280;61032;50.782;6.818;2022-09-21T00:37:26;101533.91;;;10.04;76.74
72892;BME280;61032;50.782;6.818;2022-09-21T00:38:26;101529.22;;;10.05;76.62
72892;BME280;61032;50.782;6.818;2022-09-21T00:39:27;101535.25;;;10.07;76.10
72892;BME280;61032;50.782;6.818;2022-09-21T00:40:30;101538.66;;;9.98;75.84
72892;BME280;61032;50.782;6.818;2022-09-21T00:41:32;101534.41;;;9.92;76.55
72892;BME280;61032;50.782;6.818;2022-09-21T00:42:33;101534.47;;;9.87;76.49
72892;BME280;61032;50.782;6.818;2022-09-21T00:43:36;101545.69;;;9.91;76.07
72892;BME280;61032;50.782;6.818;2022-09-21T00:44:37;101540.84;;;9.83;76.39
72892;BME280;61032;50.782;6.818;2022-09-21T00:45:37;101538.72;;;9.80;77.03
72892;BME280;61032;50.782;6.818;2022-09-21T00:46:39;101541.75;;;9.78;77.20
72892;BME280;61032;50.782;6.818;2022-09-21T00:47:41;101540.44;;;9.76;77.30
72892;BME280;61032;50.782;6.818;2022-09-21T00:48:43;101530.06;;;9.73;76.87
72892;BME280;61032;50.782;6.818;2022-09-21T00:49:46;101537.25;;;9.69;77.43
72892;BME280;61032;50.782;6.818;2022-09-21T00:50:53;101538.44;;;9.62;77.66
72892;BME280;61032;50.782;6.818;2022-09-21T00:51:57;101542.81;;;9.63;77.91
72892;BME280;61032;50.782;6.818;2022-09-21T00:52:58;101544.66;;;9.68;77.85
72892;BME280;61032;50.782;6.818;2022-09-21T00:54:05;101547.66;;;9.72;78.30
72892;BME280;61032;50.782;6.818;2022-09-21T00:55:32;101540.22;;;9.72;78.34
72892;BME280;61032;50.782;6.818;2022-09-21T00:56:35;101547.06;;;9.75;78.08
72892;BME280;61032;50.782;6.818;2022-09-21T00:57:36;101538.50;;;9.76;77.58
72892;BME280;61032;50.782;6.818;2022-09-21T00:58:43;101545.84;;;9.81;77.87
72892;BME280;61032;50.782;6.818;2022-09-21T00:59:46;101545.94;;;9.76;77.39
72892;BME280;61032;50.782;6.818;2022-09-21T01:00:47;101539.94;;;9.74;77.38
72892;BME280;61032;50.782;6.818;2022-09-21T01:01:49;101548.69;;;9.76;77.21
72892;BME280;61032;50.782;6.818;2022-09-21T01:02:50;101539.34;;;9.77;77.62
72892;BME280;61032;50.782;6.818;2022-09-21T01:03:52;101542.38;;;9.75;77.92
72892;BME280;61032;50.782;6.818;2022-09-21T01:04:56;101547.66;;;9.72;78.18
72892;BME280;61032;50.782;6.818;2022-09-21T01:06:00;101538.81;;;9.75;77.87
72892;BME280;61032;50.782;6.818;2022-09-21T01:07:07;101541.25;;;9.76;77.57
72892;BME280;61032;50.782;6.818;2022-09-21T01:08:10;101537.38;;;9.77;77.47
72892;BME280;61032;50.782;6.818;2022-09-21T01:09:12;101539.81;;;9.79;77.59
72892;BME280;61032;50.782;6.818;2022-09-21T01:10:16;101547.16;;;9.83;77.67
72892;BME280;61032;50.782;6.818;2022-09-21T01:11:28;101543.81;;;9.86;77.36
72892;BME280;61032;50.782;6.818;2022-09-21T01:16:14;101541.59;;;9.88;76.84
72892;BME280;61032;50.782;6.818;2022-09-21T01:17:35;101540.19;;;9.91;76.96
72892;BME280;61032;50.782;6.818;2022-09-21T01:18:52;101541.97;;;9.82;77.19
72892;BME280;61032;50.782;6.818;2022-09-21T01:20:23;101539.34;;;9.77;77.73
72892;BME280;61032;50.782;6.818;2022-09-21T01:21:29;101541.44;;;9.80;77.14
72892;BME280;61032;50.782;6.818;2022-09-21T01:29:12;101535.66;;;9.81;76.54
72892;BME280;61032;50.782;6.818;2022-09-21T01:30:17;101533.63;;;9.73;76.84
72892;BME280;61032;50.782;6.818;2022-09-21T01:31:48;101524.63;;;9.68;77.17
72892;BME280;61032;50.782;6.818;2022-09-21T01:32:54;101529.59;;;9.65;77.55
72892;BME280;61032;50.782;6.818;2022-09-21T01:34:01;101541.09;;;9.68;77.39
72892;BME280;61032;50.782;6.818;2022-09-21T01:35:09;101538.66;;;9.66;77.35
72892;BME280;61032;50.782;6.818;2022-09-21T01:36:15;101539.47;;;9.67;76.63
72892;BME280;61032;50.782;6.818;2022-09-21T01:37:21;101543.94;;;9.62;76.96
72892;BME280;61032;50.782;6.818;2022-09-21T01:38:30;101541.47;;;9.61;77.21
72892;BME280;61032;50.782;6.818;2022-09-21T01:39:34;101539.84;;;9.60;76.93
72892;BME280;61032;50.782;6.818;2022-09-21T01:40:42;101531.91;;;9.58;77.18
72892;BME280;61032;50.782;6.818;2022-09-21T01:41:45;101538.00;;;9.55;77.01
72892;BME280;61032;50.782;6.818;2022-09-21T01:42:48;101537.78;;;9.52;76.40
72892;BME280;61032;50.782;6.818;2022-09-21T01:43:53;101533.13;;;9.52;77.01
72892;BME280;61032;50.782;6.818;2022-09-21T01:44:57;101532.38;;;9.47;77.36
72892;BME280;61032;50.782;6.818;2022-09-21T01:46:00;101533.72;;;9.49;77.32
72892;BME280;61032;50.782;6.818;2022-09-21T01:47:06;101537.03;;;9.46;77.22
72892;BME280;61032;50.782;6.818;2022-09-21T01:48:08;101538.31;;;9.35;77.29
72892;BME280;61032;50.782;6.818;2022-09-21T01:49:23;101535.13;;;9.28;77.77
72892;BME280;61032;50.782;6.818;2022-09-21T01:50:26;101538.66;;;9.28;78.52
72892;BME280;61032;50.782;6.818;2022-09-21T01:51:28;101535.63;;;9.30;78.04
72892;BME280;61032;50.782;6.818;2022-09-21T01:52:55;101531.84;;;9.26;77.95
72892;BME280;61032;50.782;6.818;2022-09-21T01:54:04;101528.63;;;9.19;78.01
72892;BME280;61032;50.782;6.818;2022-09-21T01:55:12;101529.75;;;9.18;78.16
72892;BME280;61032;50.782;6.818;2022-09-21T01:56:21;101531.38;;;9.19;78.69
72892;BME280;61032;50.782;6.818;2022-09-21T01:57:33;101539.03;;;9.22;78.56
72892;BME280;61032;50.782;6.818;2022-09-21T01:58:45;101535.41;;;9.26;78.04
72892;BME280;61032;50.782;6.818;2022-09-21T01:59:57;101536.75;;;9.29;77.75
72892;BME280;61032;50.782;6.818;2022-09-21T02:00:58;101540.06;;;9.26;77.71
72892;BME280;61032;50.782;6.818;2022-09-21T02:02:11;101532.97;;;9.25;78.03
72892;BME280;61032;50.782;6.818;2022-09-21T02:03:29;101532.97;;;9.25;77.87
72892;BME280;61032;50.782;6.818;2022-09-21T02:04:33;101532.38;;;9.28;77.89
72892;BME280;61032;50.782;6.818;2022-09-21T02:05:34;101530.72;;;9.27;77.73
72892;BME280;61032;50.782;6.818;2022-09-21T02:06:37;101538.97;;;9.27;77.76
72892;BME280;61032;50.782;6.818;2022-09-21T02:07:39;101536.16;;;9.32;77.74
72892;BME280;61032;50.782;6.818;2022-09-21T02:08:39;101541.06;;;9.35;77.44
72892;BME280;61032;50.782;6.818;2022-09-21T02:09:40;101532.00;;;9.35;77.29
72892;BME280;61032;50.782;6.818;2022-09-21T02:10:50;101536.81;;;9.24;76.93
72892;BME280;61032;50.782;6.818;2022-09-21T02:11:51;101533.53;;;9.22;77.62
72892;BME280;61032;50.782;6.818;2022-09-21T02:12:55;101535.41;;;9.26;77.82
72892;BME280;61032;50.782;6.818;2022-09-21T02:14:00;101533.78;;;9.25;77.97
72892;BME280;61032;50.782;6.818;2022-09-21T02:15:01;101530.44;;;9.28;77.83
72892;BME280;61032;50.782;6.818;2022-09-21T02:16:10;101530.97;;;9.30;77.77
72892;BME280;61032;50.782;6.818;2022-09-21T02:17:28;101532.88;;;9.30;77.89
72892;BME280;61032;50.782;6.818;2022-09-21T02:18:47;101535.13;;;9.28;78.04
72892;BME280;61032;50.782;6.818;2022-09-21T02:19:56;101535.94;;;9.28;77.66
72892;BME280;61032;50.782;6.818;2022-09-21T02:21:03;101531.25;;;9.29;77.83
72892;BME280;61032;50.782;6.818;2022-09-21T02:23:22;101532.31;;;9.33;77.85
72892;BME280;61032;50.782;6.818;2022-09-21T02:24:26;101541.84;;;9.36;78.13
72892;BME280;61032;50.782;6.818;2022-09-21T02:25:39;101533.31;;;9.37;78.03
72892;BME280;61032;50.782;6.818;2022-09-21T02:26:49;101532.81;;;9.35;77.25
72892;BME280;61032;50.782;6.818;2022-09-21T02:27:54;101526.06;;;9.27;76.75
72892;BME280;61032;50.782;6.818;2022-09-21T02:29:52;101535.19;;;9.23;76.97
72892;BME280;61032;50.782;6.818;2022-09-21T02:30:56;101532.44;;;9.23;77.20
72892;BME280;61032;50.782;6.818;2022-09-21T02:33:27;101531.84;;;9.26;76.83
72892;BME280;61032;50.782;6.818;2022-09-21T02:34:38;101533.47;;;9.27;76.74
72892;BME280;61032;50.782;6.818;2022-09-21T02:37:01;101534.28;;;9.27;76.79
72892;BME280;61032;50.782;6.818;2022-09-21T02:38:06;101535.13;;;9.28;76.85
72892;BME280;61032;50.782;6.818;2022-09-21T02:39:17;101535.13;;;9.28;76.61
72892;BME280;61032;50.782;6.818;2022-09-21T02:40:29;101530.72;;;9.27;76.83
72892;BME280;61032;50.782;6.818;2022-09-21T02:42:38;101530.84;;;9.17;76.80
72892;BME280;61032;50.782;6.818;2022-09-21T02:45:26;101531.97;;;9.16;76.94
72892;BME280;61032;50.782;6.818;2022-09-21T02:46:32;101527.59;;;9.15;76.38
72892;BME280;61032;50.782;6.818;2022-09-21T02:47:50;101524.56;;;9.16;76.14
72892;BME280;61032;50.782;6.818;2022-09-21T02:48:55;101529.56;;;9.14;76.25
72892;BME280;61032;50.782;6.818;2022-09-21T02:50:02;101540.00;;;9.12;76.93
72892;BME280;61032;50.782;6.818;2022-09-21T02:51:08;101530.34;;;9.15;76.49
72892;BME280;61032;50.782;6.818;2022-09-21T02:52:13;101531.47;;;9.14;76.59
72892;BME280;61032;50.782;6.818;2022-09-21T02:53:19;101529.03;;;9.12;76.63
72892;BME280;61032;50.782;6.818;2022-09-21T02:54:25;101540.28;;;9.11;76.10
72892;BME280;61032;50.782;6.818;2022-09-21T02:55:27;101534.03;;;9.05;76.45
72892;BME280;61032;50.782;6.818;2022-09-21T02:56:32;101537.59;;;9.06;76.54
72892;BME280;61032;50.782;6.818;2022-09-21T02:57:34;101539.31;;;9.02;76.49
72892;BME280;61032;50.782;6.818;2022-09-21T02:58:39;101525.06;;;9.00;77.10
72892;BME280;61032;50.782;6.818;2022-09-21T02:59:43;101529.72;;;8.99;76.79
72892;BME280;61032;50.782;6.818;2022-09-21T03:00:43;101527.22;;;9.03;76.78
72892;BME280;61032;50.782;6.818;2022-09-21T03:01:44;101529.72;;;8.99;76.92
72892;BME280;61032;50.782;6.818;2022-09-21T03:02:44;101525.66;;;8.96;76.92
72892;BME280;61032;50.782;6.818;2022-09-21T03:03:45;101525.13;;;8.94;76.77
72892;BME280;61032;50.782;6.818;2022-09-21T03:04:46;101524.63;;;8.92;76.89
72892;BME280;61032;50.782;6.818;2022-09-21T03:05:49;101526.84;;;8.90;77.31
72892;BME280;61032;50.782;6.818;2022-09-21T03:06:50;101523.28;;;8.90;77.40
72892;BME280;61032;50.782;6.818;2022-09-21T03:07:50;101519.44;;;8.91;77.36
72892;BME280;61032;50.782;6.818;2022-09-21T03:08:51;101523.88;;;8.87;76.96
72892;BME280;61032;50.782;6.818;2022-09-21T03:09:51;101523.56;;;8.88;77.33
72892;BME280;61032;50.782;6.818;2022-09-21T03:10:52;101529.63;;;8.85;77.86
72892;BME280;61032;50.782;6.818;2022-09-21T03:11:53;101520.66;;;8.80;77.69
72892;BME280;61032;50.782;6.818;2022-09-21T03:12:56;101522.28;;;8.81;78.00
72892;BME280;61032;50.782;6.818;2022-09-21T03:13:58;101519.31;;;8.77;77.49
72892;BME280;61032;50.782;6.818;2022-09-21T03:14:58;101522.88;;;8.78;77.68
72892;BME280;61032;50.782;6.818;2022-09-21T03:16:01;101528.34;;;8.78;77.83
72892;BME280;61032;50.782;6.818;2022-09-21T03:17:02;101520.41;;;8.76;78.07
72892;BME280;61032;50.782;6.818;2022-09-21T03:18:04;101527.53;;;8.77;78.34
72892;BME280;61032;50.782;6.818;2022-09-21T03:19:05;101531.38;;;8.76;77.81
72892;BME280;61032;50.782;6.818;2022-09-21T03:20:05;101532.19;;;8.77;77.81
72892;BME280;61032;50.782;6.818;2022-09-21T03:21:07;101530.34;;;8.72;77.97
72892;BME280;61032;50.782;6.818;2022-09-21T03:22:08;101525.75;;;8.68;77.66
72892;BME280;61032;50.782;6.818;2022-09-21T03:23:08;101527.09;;;8.70;78.18
72892;BME280;61032;50.782;6.818;2022-09-21T03:24:09;101525.97;;;8.71;78.00
72892;BME280;61032;50.782;6.818;2022-09-21T03:25:09;101535.84;;;8.72;78.27
72892;BME280;61032;50.782;6.818;2022-09-21T03:26:12;101528.94;;;8.75;78.00
72892;BME280;61032;50.782;6.818;2022-09-21T03:27:13;101530.34;;;8.72;78.03
72892;BME280;61032;50.782;6.818;2022-09-21T03:28:15;101531.19;;;8.73;78.17
72892;BME280;61032;50.782;6.818;2022-09-21T03:29:15;101524.56;;;8.74;77.96
72892;BME280;61032;50.782;6.818;2022-09-21T03:30:16;101528.44;;;8.73;77.78
72892;BME280;61032;50.782;6.818;2022-09-21T03:31:16;101533.69;;;8.69;78.03
72892;BME280;61032;50.782;6.818;2022-09-21T03:32:17;101524.63;;;8.69;77.99
72892;BME280;61032;50.782;6.818;2022-09-21T03:33:18;101529.53;;;8.72;77.80
72892;BME280;61032;50.782;6.818;2022-09-21T03:34:25;101529.84;;;8.70;78.10
72892;BME280;61032;50.782;6.818;2022-09-21T03:35:26;101535.38;;;8.65;78.02
72892;BME280;61032;50.782;6.818;2022-09-21T03:36:26;101532.03;;;8.68;77.98
72892;BME280;61032;50.782;6.818;2022-09-21T03:37:26;101530.69;;;8.66;78.04
72892;BME280;61032;50.782;6.818;2022-09-21T03:38:27;101531.50;;;8.66;77.84
72892;BME280;61032;50.782;6.818;2022-09-21T03:39:27;101537.56;;;8.63;78.10
72892;BME280;61032;50.782;6.818;2022-09-21T03:40:28;101538.44;;;8.58;78.29
72892;BME280;61032;50.782;6.818;2022-09-21T03:41:28;101536.28;;;8.55;78.53
72892;BME280;61032;50.782;6.818;2022-09-21T03:42:28;101541.22;;;8.53;78.40
72892;BME280;61032;50.782;6.818;2022-09-21T03:43:29;101542.34;;;8.52;78.46
72892;BME280;61032;50.782;6.818;2022-09-21T03:44:29;101542.06;;;8.54;78.59
72892;BME280;61032;50.782;6.818;2022-09-21T03:45:29;101529.97;;;8.55;78.60
72892;BME280;61032;50.782;6.818;2022-09-21T03:46:30;101536.28;;;8.55;78.86
72892;BME280;61032;50.782;6.818;2022-09-21T03:47:31;101539.31;;;8.54;78.68
72892;BME280;61032;50.782;6.818;2022-09-21T03:48:31;101538.50;;;8.53;78.72
72892;BME280;61032;50.782;6.818;2022-09-21T03:49:32;101543.22;;;8.48;78.34
72892;BME280;61032;50.782;6.818;2022-09-21T03:50:34;101539.69;;;8.47;79.10
72892;BME280;61032;50.782;6.818;2022-09-21T03:51:34;101536.66;;;8.49;78.81
72892;BME280;61032;50.782;6.818;2022-09-21T03:52:34;101542.88;;;8.54;78.47
72892;BME280;61032;50.782;6.818;2022-09-21T03:53:38;101541.22;;;8.53;78.69
72892;BME280;61032;50.782;6.818;2022-09-21T03:54:38;101536.28;;;8.55;78.03
72892;BME280;61032;50.782;6.818;2022-09-21T03:55:39;101537.91;;;8.56;78.13
72892;BME280;61032;50.782;6.818;2022-09-21T03:56:40;101541.47;;;8.57;78.34
72892;BME280;61032;50.782;6.818;2022-09-21T03:57:40;101540.13;;;8.54;78.01
72892;BME280;61032;50.782;6.818;2022-09-21T03:58:41;101534.94;;;8.53;78.24
72892;BME280;61032;50.782;6.818;2022-09-21T03:59:41;101533.00;;;8.53;77.75
72892;BME280;61032;50.782;6.818;2022-09-21T04:00:42;101539.91;;;8.51;77.99
72892;BME280;61032;50.782;6.818;2022-09-21T04:01:42;101540.22;;;8.49;78.74
72892;BME280;61032;50.782;6.818;2022-09-21T04:02:43;101529.25;;;8.49;78.39
72892;BME280;61032;50.782;6.818;2022-09-21T04:03:43;101539.09;;;8.50;78.14
72892;BME280;61032;50.782;6.818;2022-09-21T04:04:43;101537.69;;;8.53;78.28
72892;BME280;61032;50.782;6.818;2022-09-21T04:05:44;101535.25;;;8.51;78.49
72892;BME280;61032;50.782;6.818;2022-09-21T04:06:44;101531.38;;;8.52;78.12
72892;BME280;61032;50.782;6.818;2022-09-21T04:07:45;101538.50;;;8.53;78.06
72892;BME280;61032;50.782;6.818;2022-09-21T04:08:46;101533.84;;;8.54;78.24
72892;BME280;61032;50.782;6.818;2022-09-21T04:09:46;101536.56;;;8.54;78.48
72892;BME280;61032;50.782;6.818;2022-09-21T04:10:46;101532.19;;;8.53;78.22
72892;BME280;61032;50.782;6.818;2022-09-21T04:11:46;101534.44;;;8.51;78.28
72892;BME280;61032;50.782;6.818;2022-09-21T04:12:47;101529.47;;;8.53;77.76
72892;BME280;61032;50.782;6.818;2022-09-21T04:13:49;101540.41;;;8.53;77.82
72892;BME280;61032;50.782;6.818;2022-09-21T04:14:50;101537.38;;;8.54;77.98
72892;BME280;61032;50.782;6.818;2022-09-21T04:15:51;101530.50;;;8.57;78.20
72892;BME280;61032;50.782;6.818;2022-09-21T04:16:51;101538.72;;;8.57;77.76
72892;BME280;61032;50.782;6.818;2022-09-21T04:17:52;101538.44;;;8.58;77.78
72892;BME280;61032;50.782;6.818;2022-09-21T04:18:53;101539.84;;;8.56;77.36
72892;BME280;61032;50.782;6.818;2022-09-21T04:19:53;101533.78;;;8.59;77.43
72892;BME280;61032;50.782;6.818;2022-09-21T04:20:53;101532.44;;;8.56;77.42
72892;BME280;61032;50.782;6.818;2022-09-21T04:21:54;101533.84;;;8.54;77.79
72892;BME280;61032;50.782;6.818;2022-09-21T04:22:55;101533.63;;;8.50;77.84
72892;BME280;61032;50.782;6.818;2022-09-21T04:23:55;101533.91;;;8.49;77.28
72892;BME280;61032;50.782;6.818;2022-09-21T04:24:56;101543.97;;;8.53;77.58
72892;BME280;61032;50.782;6.818;2022-09-21T04:25:57;101535.25;;;8.51;77.34
72892;BME280;61032;50.782;6.818;2022-09-21T04:26:57;101543.97;;;8.53;77.56
72892;BME280;61032;50.782;6.818;2022-09-21T04:27:58;101535.84;;;8.48;77.42
72892;BME280;61032;50.782;6.818;2022-09-21T04:28:59;101532.56;;;8.46;77.32
72892;BME280;61032;50.782;6.818;2022-09-21T04:30:00;101547.09;;;8.47;77.92
72892;BME280;61032;50.782;6.818;2022-09-21T04:31:00;101538.88;;;8.47;77.56
72892;BME280;61032;50.782;6.818;2022-09-21T04:32:00;101544.09;;;8.43;77.63
72892;BME280;61032;50.782;6.818;2022-09-21T04:33:01;101540.53;;;8.43;77.94
72892;BME280;61032;50.782;6.818;2022-09-21T04:34:01;101542.72;;;8.46;77.92
72892;BME280;61032;50.782;6.818;2022-09-21T04:35:01;101546.59;;;8.40;77.66
72892;BME280;61032;50.782;6.818;2022-09-21T04:36:02;101547.94;;;8.42;77.41
72892;BME280;61032;50.782;6.818;2022-09-21T04:37:02;101543.28;;;8.43;77.58
72892;BME280;61032;50.782;6.818;2022-09-21T04:38:03;101547.41;;;8.40;77.63
72892;BME280;61032;50.782;6.818;2022-09-21T04:39:04;101553.97;;;8.44;77.65
72892;BME280;61032;50.782;6.818;2022-09-21T04:40:05;101555.91;;;8.39;77.74
72892;BME280;61032;50.782;6.818;2022-09-21T04:41:06;101548.81;;;8.38;77.70
72892;BME280;61032;50.782;6.818;2022-09-21T04:42:07;101553.19;;;8.39;77.89
72892;BME280;61032;50.782;6.818;2022-09-21T04:43:07;101552.38;;;8.38;77.86
72892;BME280;61032;50.782;6.818;2022-09-21T04:44:08;101553.19;;;8.39;78.08
72892;BME280;61032;50.782;6.818;2022-09-21T04:45:09;101558.13;;;8.37;78.10
72892;BME280;61032;50.782;6.818;2022-09-21T04:46:12;101549.34;;;8.40;77.72
72892;BME280;61032;50.782;6.818;2022-09-21T04:47:13;101561.19;;;8.30;77.78
72892;BME280;61032;50.782;6.818;2022-09-21T04:48:13;101560.88;;;8.32;77.96
72892;BME280;61032;50.782;6.818;2022-09-21T04:49:14;101560.88;;;8.32;77.96
72892;BME280;61032;50.782;6.818;2022-09-21T04:50:15;101554.31;;;8.33;78.11
72892;BME280;61032;50.782;6.818;2022-09-21T04:51:15;101559.81;;;8.33;78.26
72892;BME280;61032;50.782;6.818;2022-09-21T04:52:16;101556.00;;;8.28;78.44
72892;BME280;61032;50.782;6.818;2022-09-21T04:53:16;101550.84;;;8.22;78.99
72892;BME280;61032;50.782;6.818;2022-09-21T04:54:17;101550.56;;;8.23;78.58
72892;BME280;61032;50.782;6.818;2022-09-21T04:55:17;101553.84;;;8.25;78.39
72892;BME280;61032;50.782;6.818;2022-09-21T04:56:19;101557.09;;;8.27;78.23
72892;BME280;61032;50.782;6.818;2022-09-21T04:57:19;101561.47;;;8.28;78.36
72892;BME280;61032;50.782;6.818;2022-09-21T04:58:21;101551.06;;;8.31;78.14
72892;BME280;61032;50.782;6.818;2022-09-21T04:59:22;101561.19;;;8.30;78.05
72892;BME280;61032;50.782;6.818;2022-09-21T05:00:22;101566.97;;;8.28;78.22
72892;BME280;61032;50.782;6.818;2022-09-21T05:01:23;101567.22;;;8.32;77.87
72892;BME280;61032;50.782;6.818;2022-09-21T05:02:24;101556.78;;;8.34;77.76
72892;BME280;61032;50.782;6.818;2022-09-21T05:03:25;101560.59;;;8.38;77.53
72892;BME280;61032;50.782;6.818;2022-09-21T05:04:25;101565.53;;;8.36;77.61
72892;BME280;61032;50.782;6.818;2022-09-21T05:05:25;101568.81;;;8.38;77.36
72892;BME280;61032;50.782;6.818;2022-09-21T05:06:28;101566.34;;;8.37;76.72
72892;BME280;61032;50.782;6.818;2022-09-21T05:07:29;101568.84;;;8.33;76.68
72892;BME280;61032;50.782;6.818;2022-09-21T05:08:34;101565.84;;;8.30;76.93
72892;BME280;61032;50.782;6.818;2022-09-21T05:09:53;101563.41;;;8.28;77.24
72892;BME280;61032;50.782;6.818;2022-09-21T05:11:02;101567.22;;;8.32;76.95
72892;BME280;61032;50.782;6.818;2022-09-21T05:12:03;101567.22;;;8.32;76.65
72892;BME280;61032;50.782;6.818;2022-09-21T05:13:03;101572.41;;;8.34;76.71
72892;BME280;61032;50.782;6.818;2022-09-21T05:14:04;101567.97;;;8.38;76.48
72892;BME280;61032;50.782;6.818;2022-09-21T05:15:05;101571.81;;;8.37;76.14
72892;BME280;61032;50.782;6.818;2022-09-21T05:16:05;101573.75;;;8.36;76.24
72892;BME280;61032;50.782;6.818;2022-09-21T05:17:06;101572.94;;;8.36;76.19
72892;BME280;61032;50.782;6.818;2022-09-21T05:18:27;101575.09;;;8.39;76.45
72892;BME280;61032;50.782;6.818;2022-09-21T05:19:27;101571.81;;;8.37;76.20
72892;BME280;61032;50.782;6.818;2022-09-21T05:20:27;101575.09;;;8.39;76.21
72892;BME280;61032;50.782;6.818;2022-09-21T05:21:28;101573.47;;;8.38;76.43
72892;BME280;61032;50.782;6.818;2022-09-21T05:22:29;101582.25;;;8.35;76.54
72892;BME280;61032;50.782;6.818;2022-09-21T05:23:30;101577.31;;;8.37;76.60
72892;BME280;61032;50.782;6.818;2022-09-21T05:24:31;101583.38;;;8.34;76.22
72892;BME280;61032;50.782;6.818;2022-09-21T05:25:31;101582.78;;;8.32;76.42
72892;BME280;61032;50.782;6.818;2022-09-21T05:26:32;101585.91;;;8.25;76.94
72892;BME280;61032;50.782;6.818;2022-09-21T05:27:32;101582.88;;;8.26;77.17
72892;BME280;61032;50.782;6.818;2022-09-21T05:28:32;101585.03;;;8.30;76.97
72892;BME280;61032;50.782;6.818;2022-09-21T05:29:33;101591.63;;;8.28;77.34
72892;BME280;61032;50.782;6.818;2022-09-21T05:30:34;101586.97;;;8.29;77.06
72892;BME280;61032;50.782;6.818;2022-09-21T05:33:02;101588.59;;;8.30;77.28
72892;BME280;61032;50.782;6.818;2022-09-21T05:34:05;101597.09;;;8.28;77.01
72892;BME280;61032;50.782;6.818;2022-09-21T05:36:38;101591.00;;;8.32;77.04
72892;BME280;61032;50.782;6.818;2022-09-21T05:37:47;101596.00;;;8.30;76.78
72892;BME280;61032;50.782;6.818;2022-09-21T05:38:51;101592.19;;;8.25;76.76
72892;BME280;61032;50.782;6.818;2022-09-21T05:39:52;101594.69;;;8.22;77.01
72892;BME280;61032;50.782;6.818;2022-09-21T05:40:52;101593.81;;;8.26;77.05
72892;BME280;61032;50.782;6.818;2022-09-21T05:41:53;101590.03;;;8.22;77.28
72892;BME280;61032;50.782;6.818;2022-09-21T05:42:54;101596.59;;;8.21;77.49
72892;BME280;61032;50.782;6.818;2022-09-21T05:43:55;101594.16;;;8.20;77.59
72892;BME280;61032;50.782;6.818;2022-09-21T05:44:56;101593.63;;;8.18;77.78
72892;BME280;61032;50.782;6.818;2022-09-21T05:46:04;101590.06;;;8.17;77.89
72892;BME280;61032;50.782;6.818;2022-09-21T05:48:27;101591.13;;;8.21;78.02
72892;BME280;61032;50.782;6.818;2022-09-21T05:52:03;101593.63;;;8.18;78.02
72892;BME280;61032;50.782;6.818;2022-09-21T05:52:52;101594.47;;;8.13;78.16
72892;BME280;61032;50.782;6.818;2022-09-21T05:54:12;101599.38;;;8.16;77.52
72892;BME280;61032;50.782;6.818;2022-09-21T05:59:34;101604.25;;;8.24;78.09
72892;BME280;61032;50.782;6.818;2022-09-21T06:00:55;101600.13;;;8.27;77.99
72892;BME280;61032;50.782;6.818;2022-09-21T06:02:05;101606.69;;;8.26;78.23
72892;BME280;61032;50.782;6.818;2022-09-21T06:04:10;101605.53;;;8.37;77.99
72892;BME280;61032;50.782;6.818;2022-09-21T06:05:13;101603.56;;;8.43;78.05
72892;BME280;61032;50.782;6.818;2022-09-21T06:06:16;101608.75;;;8.44;77.56